Time;durP1;ratioP1;P1;durP2;ratioP2;P2;SDS_P1;SDS_P2;PMS_P1;PMS_P2;Temp;Humidity;BMP_temperature;BMP_pressure;BME280_temperature;BME280_humidity;BME280_pressure;Samples;Min_cycle;Max_cycle;Signal;HPM_P1;HPM_P2
2023/11/23 15:09:49;;;;;;;17.80;2.63;;;;;;;;;;4978593;28;20053;-48
2023/11/23 15:12:23;;;;;;;17.45;2.45;;;;;;;;;;4999691;28;20108;-53
2023/11/23 15:15:18;;;;;;;13.70;2.72;;;;;;;;;;5000439;28;20108;-64
2023/11/23 15:18:11;;;;;;;12.77;2.25;;;;;;;;;;4993466;28;20057;-61
2023/11/23 15:21:05;;;;;;;8.18;2.50;;;;;;;;;;5001135;28;20085;-61
2023/11/23 15:24:06;;;;;;;10.85;2.33;;;;;;;;;;4999352;28;20050;-61
2023/11/23 15:26:53;;;;;;;16.00;2.90;;;;;;;;;;5004190;28;20077;-61
2023/11/23 15:29:48;;;;;;;15.38;2.65;;;;;;;;;;5004151;28;20497;-58
2023/11/23 15:32:37;;;;;;;11.15;1.92;;;;;;;;;;5001764;28;20167;-54
2023/11/23 15:35:29;;;;;;;10.95;2.03;;;;;;;;;;4998939;28;20054;-54
2023/11/23 15:38:15;;;;;;;16.90;2.22;;;;;;;;;;5002446;28;20112;-51
2023/11/23 15:41:10;;;;;;;8.68;2.03;;;;;;;;;;5000201;28;20081;-55
2023/11/23 15:43:56;;;;;;;16.13;2.70;;;;;;;;;;5001055;28;20145;-56
2023/11/23 15:46:50;;;;;;;17.45;2.25;;;;;;;;;;5000234;28;20468;-49
2023/11/23 15:49:37;;;;;;;13.82;2.70;;;;;;;;;;5000509;28;20062;-58
2023/11/23 15:52:31;;;;;;;20.20;3.55;;;;;;;;;;5004048;28;20136;-59
2023/11/23 15:55:18;;;;;;;10.93;2.13;;;;;;;;;;5001336;28;20050;-59
2023/11/23 15:58:12;;;;;;;12.25;3.10;;;;;;;;;;5002735;28;20057;-58
2023/11/23 16:01:03;;;;;;;14.20;2.55;;;;;;;;;;5002767;28;20050;-58
2023/11/23 16:03:53;;;;;;;12.80;2.33;;;;;;;;;;5002866;28;20397;-59
2023/11/23 16:06:48;;;;;;;13.23;2.42;;;;;;;;;;5004011;28;20081;-57
2023/11/23 16:09:54;;;;;;;10.27;2.03;;;;;;;;;;5002424;28;20525;-57
2023/11/23 16:12:49;;;;;;;14.88;2.20;;;;;;;;;;5003238;28;20054;-57
2023/11/23 16:15:43;;;;;;;9.48;1.95;;;;;;;;;;5003225;28;20057;-47
2023/11/23 16:18:33;;;;;;;11.10;2.05;;;;;;;;;;5003573;28;20050;-63
2023/11/23 16:21:24;;;;;;;11.88;2.03;;;;;;;;;;5002103;28;20054;-62
2023/11/23 16:24:18;;;;;;;8.77;2.50;;;;;;;;;;5002033;28;20055;-63
2023/11/23 16:27:06;;;;;;;7.00;1.60;;;;;;;;;;5001411;28;20484;-62
2023/11/23 16:29:59;;;;;;;11.93;2.20;;;;;;;;;;5001588;28;20053;-62
2023/11/23 16:32:47;;;;;;;9.38;2.08;;;;;;;;;;4999369;28;20049;-62
2023/11/23 16:35:41;;;;;;;10.45;2.10;;;;;;;;;;4998974;28;20544;-61
2023/11/23 16:38:35;;;;;;;6.45;1.70;;;;;;;;;;5000413;28;20052;-48
2023/11/23 16:41:37;;;;;;;7.80;1.58;;;;;;;;;;5001964;28;20144;-49
2023/11/23 16:44:37;;;;;;;12.57;1.70;;;;;;;;;;5000647;28;20950;-49
2023/11/23 16:47:24;;;;;;;12.50;2.03;;;;;;;;;;5002073;28;20436;-50
2023/11/23 16:50:21;;;;;;;11.05;1.83;;;;;;;;;;5002662;28;20057;-48
2023/11/23 16:53:07;;;;;;;7.18;1.88;;;;;;;;;;4996310;28;20195;-58
2023/11/23 16:56:01;;;;;;;8.23;1.92;;;;;;;;;;4991204;28;20485;-58
2023/11/23 16:58:49;;;;;;;12.20;2.85;;;;;;;;;;4997145;28;20075;-58
2023/11/23 17:01:43;;;;;;;10.95;2.13;;;;;;;;;;4994145;28;20428;-58
2023/11/23 17:04:30;;;;;;;10.52;1.77;;;;;;;;;;4999118;28;20061;-56
2023/11/23 17:07:27;;;;;;;13.63;2.17;;;;;;;;;;5000747;28;20535;-66
2023/11/23 17:10:21;;;;;;;9.32;2.13;;;;;;;;;;5001838;28;20054;-65
2023/11/23 17:13:14;;;;;;;13.88;1.80;;;;;;;;;;4999025;28;20417;-66
2023/11/23 17:16:10;;;;;;;10.13;2.42;;;;;;;;;;5001995;28;20054;-65
2023/11/23 17:19:02;;;;;;;9.75;1.80;;;;;;;;;;4999407;28;20049;-63
2023/11/23 17:21:52;;;;;;;15.13;2.95;;;;;;;;;;4999106;28;20608;-58
2023/11/23 17:24:45;;;;;;;8.25;2.10;;;;;;;;;;4995485;28;20049;-60
2023/11/23 17:27:39;;;;;;;9.43;2.17;;;;;;;;;;4995747;28;20141;-59
2023/11/23 17:30:33;;;;;;;5.13;1.43;;;;;;;;;;4997652;28;20089;-59
2023/11/23 17:33:29;;;;;;;12.75;2.28;;;;;;;;;;4992500;28;20054;-59
2023/11/23 17:36:16;;;;;;;10.18;2.55;;;;;;;;;;4994919;28;20144;-59
2023/11/23 17:39:15;;;;;;;10.85;2.20;;;;;;;;;;4996082;28;20061;-48
2023/11/23 17:41:56;;;;;;;16.40;2.60;;;;;;;;;;4994642;28;20054;-50
2023/11/23 17:44:49;;;;;;;7.15;1.90;;;;;;;;;;4992791;28;20064;-50
2023/11/23 17:47:44;;;;;;;7.75;1.80;;;;;;;;;;4994856;28;20060;-50
2023/11/23 17:50:31;;;;;;;13.82;2.20;;;;;;;;;;4996326;28;20411;-66
2023/11/23 17:53:24;;;;;;;11.05;1.63;;;;;;;;;;5000984;28;20081;-61
2023/11/23 17:56:14;;;;;;;9.43;1.52;;;;;;;;;;4998091;28;20050;-61
2023/11/23 17:59:11;;;;;;;9.40;2.33;;;;;;;;;;5001796;28;20077;-61
2023/11/23 18:02:17;;;;;;;11.57;2.25;;;;;;;;;;4997147;28;20074;-62
2023/11/23 18:05:04;;;;;;;8.75;1.92;;;;;;;;;;4999026;28;20058;-61
2023/11/23 18:07:52;;;;;;;9.00;1.77;;;;;;;;;;4995668;28;20413;-60
2023/11/23 18:10:52;;;;;;;9.18;2.00;;;;;;;;;;4990518;28;20065;-59
2023/11/23 18:13:39;;;;;;;10.90;2.05;;;;;;;;;;4995809;28;20081;-59
2023/11/23 18:16:33;;;;;;;7.20;1.50;;;;;;;;;;4995555;28;20512;-60
2023/11/23 18:19:21;;;;;;;11.02;1.70;;;;;;;;;;4995538;28;20053;-58
2023/11/23 18:22:14;;;;;;;6.03;1.55;;;;;;;;;;4996883;28;20116;-66
2023/11/23 18:25:02;;;;;;;8.60;2.05;;;;;;;;;;4993098;28;20050;-66
2023/11/23 18:27:56;;;;;;;11.88;2.45;;;;;;;;;;4988823;28;20121;-66
2023/11/23 18:30:42;;;;;;;11.82;1.83;;;;;;;;;;4991947;28;20078;-65
2023/11/23 18:33:38;;;;;;;7.95;1.90;;;;;;;;;;4995656;28;20163;-67
2023/11/23 18:36:33;;;;;;;15.93;2.25;;;;;;;;;;4994241;28;20062;-66
2023/11/23 18:39:27;;;;;;;8.27;1.55;;;;;;;;;;4994613;28;20779;-67
2023/11/23 18:42:13;;;;;;;9.07;2.45;;;;;;;;;;4994613;28;20060;-67
2023/11/23 18:45:10;;;;;;;8.70;1.58;;;;;;;;;;4995269;28;20137;-67
2023/11/23 18:47:55;;;;;;;8.48;1.45;;;;;;;;;;4993416;28;20052;-67
2023/11/23 18:50:49;;;;;;;7.80;1.73;;;;;;;;;;4995450;28;20065;-67
2023/11/23 18:53:38;;;;;;;14.98;2.10;;;;;;;;;;4995499;28;20058;-68
2023/11/23 18:56:31;;;;;;;6.30;1.40;;;;;;;;;;4994885;28;20058;-59
2023/11/23 18:59:18;;;;;;;6.75;1.80;;;;;;;;;;4997259;28;20061;-62
2023/11/23 19:02:12;;;;;;;7.85;2.40;;;;;;;;;;4993686;28;20058;-61
2023/11/23 19:05:00;;;;;;;9.18;1.60;;;;;;;;;;4995208;28;20101;-61
2023/11/23 19:07:53;;;;;;;8.05;1.73;;;;;;;;;;4993960;28;20485;-61
2023/11/23 19:10:47;;;;;;;4.85;1.60;;;;;;;;;;4993284;28;20610;-61
2023/11/23 19:13:47;;;;;;;12.07;2.58;;;;;;;;;;4994933;28;20062;-63
2023/11/23 19:16:34;;;;;;;7.75;1.58;;;;;;;;;;4995748;28;20206;-63
2023/11/23 19:19:28;;;;;;;8.57;1.60;;;;;;;;;;4995513;28;20046;-63
2023/11/23 19:22:16;;;;;;;9.35;1.40;;;;;;;;;;4999350;28;20096;-63
2023/11/23 19:25:09;;;;;;;9.93;2.05;;;;;;;;;;4995548;28;20054;-59
2023/11/23 19:28:04;;;;;;;10.63;1.80;;;;;;;;;;4990426;28;20147;-67
2023/11/23 19:30:51;;;;;;;2.97;0.98;;;;;;;;;;4992985;28;20413;-68
2023/11/23 19:33:44;;;;;;;5.13;1.20;;;;;;;;;;4994628;28;20824;-68
2023/11/23 19:36:33;;;;;;;10.57;1.80;;;;;;;;;;4995118;28;20050;-69
2023/11/23 19:39:26;;;;;;;8.80;1.75;;;;;;;;;;4993852;28;20061;-68
2023/11/23 19:42:16;;;;;;;12.15;1.95;;;;;;;;;;4991955;28;20184;-55
2023/11/23 19:45:10;;;;;;;3.22;1.10;;;;;;;;;;4995376;28;20428;-55
2023/11/23 19:47:58;;;;;;;6.18;1.42;;;;;;;;;;4989434;28;20169;-56
2023/11/23 19:50:52;;;;;;;7.40;1.45;;;;;;;;;;4995567;28;20073;-69
2023/11/23 19:53:42;;;;;;;11.32;1.90;;;;;;;;;;4997691;28;20054;-57
2023/11/23 19:56:35;;;;;;;5.05;1.90;;;;;;;;;;4986994;28;20046;-61
2023/11/23 19:59:23;;;;;;;6.50;1.40;;;;;;;;;;4991866;28;20108;-61
2023/11/23 20:02:17;;;;;;;9.70;1.55;;;;;;;;;;4997764;28;20077;-60
2023/11/23 20:05:04;;;;;;;6.22;1.30;;;;;;;;;;5000437;28;20091;-61
2023/11/23 20:07:59;;;;;;;5.10;1.40;;;;;;;;;;4996977;28;20501;-61
2023/11/23 20:10:52;;;;;;;4.72;1.20;;;;;;;;;;4999839;28;20058;-59
2023/11/23 20:13:53;;;;;;;5.10;1.58;;;;;;;;;;5000864;28;20041;-59
2023/11/23 20:16:40;;;;;;;10.55;1.73;;;;;;;;;;4999768;28;20058;-59
2023/11/23 20:19:35;;;;;;;1.80;0.77;;;;;;;;;;5000446;28;20149;-56
2023/11/23 20:22:21;;;;;;;7.38;1.40;;;;;;;;;;4997444;28;20058;-68
2023/11/23 20:25:15;;;;;;;6.63;1.30;;;;;;;;;;4996015;28;20061;-67
2023/11/23 20:28:05;;;;;;;6.63;1.23;;;;;;;;;;4998172;28;20068;-67
2023/11/23 20:30:57;;;;;;;6.82;1.40;;;;;;;;;;4997328;28;20337;-68
2023/11/23 20:33:44;;;;;;;7.57;1.25;;;;;;;;;;4995635;28;20428;-67
2023/11/23 20:36:39;;;;;;;7.05;1.70;;;;;;;;;;4996700;28;20844;-68
2023/11/23 20:39:26;;;;;;;5.82;1.63;;;;;;;;;;4997462;28;20132;-48
2023/11/23 20:42:20;;;;;;;6.13;1.67;;;;;;;;;;4996218;28;20184;-49
2023/11/23 20:45:07;;;;;;;7.90;2.10;;;;;;;;;;4995523;28;20064;-50
2023/11/23 20:48:00;;;;;;;4.75;1.02;;;;;;;;;;4997630;28;20056;-55
2023/11/23 20:50:48;;;;;;;9.43;1.48;;;;;;;;;;4996909;28;20258;-59
2023/11/23 20:53:42;;;;;;;4.95;1.23;;;;;;;;;;4996799;28;20057;-58
2023/11/23 20:56:28;;;;;;;5.60;1.25;;;;;;;;;;4996995;28;20053;-57
2023/11/23 20:59:23;;;;;;;6.80;1.45;;;;;;;;;;4998893;28;20535;-58
2023/11/23 21:02:10;;;;;;;7.28;1.73;;;;;;;;;;4997257;28;20096;-58
2023/11/23 21:05:05;;;;;;;3.95;1.38;;;;;;;;;;4996534;28;20100;-57
2023/11/23 21:07:52;;;;;;;4.82;1.20;;;;;;;;;;4999203;28;20800;-61
2023/11/23 21:11:00;;;;;;;7.43;1.30;;;;;;;;;;4997437;28;20061;-61
2023/11/23 21:13:54;;;;;;;4.22;1.20;;;;;;;;;;4997036;28;20050;-60
2023/11/23 21:16:48;;;;;;;11.98;1.80;;;;;;;;;;4994636;28;20057;-58
2023/11/23 21:19:36;;;;;;;6.95;1.35;;;;;;;;;;4991802;28;20555;-66
2023/11/23 21:22:29;;;;;;;13.32;1.50;;;;;;;;;;4994040;28;20050;-66
2023/11/23 21:25:23;;;;;;;4.07;1.13;;;;;;;;;;4991569;28;20420;-66
2023/11/23 21:28:10;;;;;;;4.78;1.70;;;;;;;;;;4993917;28;20054;-66
2023/11/23 21:31:04;;;;;;;13.15;1.50;;;;;;;;;;4992055;28;20089;-66
2023/11/23 21:33:54;;;;;;;4.18;1.27;;;;;;;;;;4992975;28;20050;-66
2023/11/23 21:36:48;;;;;;;7.25;1.55;;;;;;;;;;4995705;28;20054;-58
2023/11/23 21:39:36;;;;;;;3.90;1.15;;;;;;;;;;4992225;28;20603;-57
2023/11/23 21:42:29;;;;;;;9.25;1.17;;;;;;;;;;4994409;28;20515;-58
2023/11/23 21:45:23;;;;;;;9.18;1.73;;;;;;;;;;4994235;28;20054;-58
2023/11/23 21:48:11;;;;;;;4.72;1.05;;;;;;;;;;4995807;28;20057;-65
2023/11/23 21:51:04;;;;;;;4.57;1.05;;;;;;;;;;4994593;28;20085;-66
2023/11/23 21:53:52;;;;;;;6.75;1.20;;;;;;;;;;4994187;28;20049;-66
2023/11/23 21:56:45;;;;;;;6.82;1.25;;;;;;;;;;4999817;28;20058;-66
2023/11/23 21:59:36;;;;;;;4.38;1.17;;;;;;;;;;4998325;28;20049;-66
2023/11/23 22:02:30;;;;;;;5.07;1.08;;;;;;;;;;4996564;28;20229;-66
2023/11/23 22:05:27;;;;;;;6.18;1.17;;;;;;;;;;4994462;28;21711;-66
2023/11/23 22:08:21;;;;;;;4.78;1.40;;;;;;;;;;4996258;28;20054;-67
2023/11/23 22:11:15;;;;;;;5.43;1.10;;;;;;;;;;4998483;28;20057;-66
2023/11/23 22:14:08;;;;;;;5.80;1.48;;;;;;;;;;4999154;28;20054;-66
2023/11/23 22:16:56;;;;;;;6.50;1.35;;;;;;;;;;5000066;28;20611;-59
2023/11/23 22:19:50;;;;;;;2.05;1.15;;;;;;;;;;4997845;28;20054;-58
2023/11/23 22:22:37;;;;;;;3.55;1.38;;;;;;;;;;4995096;28;20065;-58
2023/11/23 22:25:32;;;;;;;4.78;1.23;;;;;;;;;;4997209;28;20108;-59
2023/11/23 22:28:18;;;;;;;4.97;1.40;;;;;;;;;;4994106;28;20547;-58
2023/11/23 22:31:14;;;;;;;3.90;1.05;;;;;;;;;;4994704;28;20054;-59
2023/11/23 22:34:01;;;;;;;5.50;1.27;;;;;;;;;;4999134;28;20045;-58
2023/11/23 22:36:55;;;;;;;6.18;1.30;;;;;;;;;;4997286;28;20112;-58
2023/11/23 22:39:43;;;;;;;6.32;1.52;;;;;;;;;;4999285;28;20104;-58
2023/11/23 22:42:36;;;;;;;7.40;1.20;;;;;;;;;;5000095;28;20061;-47
2023/11/23 22:45:24;;;;;;;6.18;1.20;;;;;;;;;;4999387;28;20413;-56
2023/11/23 22:48:17;;;;;;;5.13;0.90;;;;;;;;;;4998082;28;20100;-56
2023/11/23 22:51:05;;;;;;;7.15;1.08;;;;;;;;;;4999150;28;20120;-57
2023/11/23 22:53:58;;;;;;;5.43;1.52;;;;;;;;;;4999709;28;20049;-57
2023/11/23 22:56:52;;;;;;;6.03;1.63;;;;;;;;;;5001660;28;20132;-57
2023/11/23 22:59:46;;;;;;;5.22;0.80;;;;;;;;;;5000998;28;20049;-57
2023/11/23 23:02:33;;;;;;;2.92;1.00;;;;;;;;;;5001169;28;20739;-56
2023/11/23 23:05:27;;;;;;;5.25;1.10;;;;;;;;;;5001457;28;20058;-57
2023/11/23 23:08:15;;;;;;;3.20;1.08;;;;;;;;;;5001537;28;20148;-57
2023/11/23 23:11:17;;;;;;;1.60;0.93;;;;;;;;;;4999346;28;20420;-46
2023/11/23 23:14:02;;;;;;;4.03;0.90;;;;;;;;;;5002080;28;20582;-56
2023/11/23 23:16:56;;;;;;;2.88;1.15;;;;;;;;;;4999615;28;20052;-57
2023/11/23 23:19:43;;;;;;;3.42;1.08;;;;;;;;;;5000330;28;20050;-57
2023/11/23 23:22:38;;;;;;;5.32;1.45;;;;;;;;;;4997630;28;20088;-58
2023/11/23 23:25:25;;;;;;;1.77;0.90;;;;;;;;;;4999868;28;20092;-56
2023/11/23 23:28:19;;;;;;;3.25;0.80;;;;;;;;;;5001029;28;20140;-56
2023/11/23 23:31:06;;;;;;;10.27;0.98;;;;;;;;;;4999867;28;20489;-60
2023/11/23 23:34:00;;;;;;;4.78;1.25;;;;;;;;;;4997930;28;20049;-61
2023/11/23 23:36:48;;;;;;;2.00;0.90;;;;;;;;;;5001805;28;20062;-61
2023/11/23 23:39:41;;;;;;;3.33;1.08;;;;;;;;;;5000078;28;20054;-66
2023/11/23 23:42:28;;;;;;;2.28;0.95;;;;;;;;;;4998869;28;20062;-59
2023/11/23 23:45:23;;;;;;;2.80;0.88;;;;;;;;;;4998683;28;21611;-59
2023/11/23 23:48:16;;;;;;;4.07;0.98;;;;;;;;;;4998162;28;20054;-59
2023/11/23 23:51:10;;;;;;;3.65;1.02;;;;;;;;;;4998990;28;20515;-59
2023/11/23 23:53:58;;;;;;;5.40;0.82;;;;;;;;;;4998987;28;20589;-59
2023/11/23 23:56:51;;;;;;;1.73;0.63;;;;;;;;;;5000073;28;20049;-58
2023/11/23 23:59:48;;;;;;;4.25;0.70;;;;;;;;;;4998843;28;20136;-58
